createdAt,value
2022-08-12T00:00:05.846Z,49.80
2022-08-12T00:02:51.132Z,50.21
2022-08-12T00:05:39.912Z,49.42
2022-08-12T00:08:45.435Z,48.91
2022-08-12T00:11:30.639Z,49.28
2022-08-12T00:14:15.937Z,49.19
2022-08-12T00:17:01.644Z,48.90
2022-08-12T00:19:47.053Z,48.58
2022-08-12T00:22:33.315Z,48.81
2022-08-12T00:25:20.011Z,49.26
2022-08-12T00:28:25.480Z,48.18
2022-08-12T00:31:11.497Z,48.31
2022-08-12T00:33:57.384Z,48.22
2022-08-12T00:36:50.075Z,48.10
2022-08-12T00:39:36.158Z,48.16
2022-08-12T00:42:12.890Z,48.13
2022-08-12T00:44:45.567Z,48.63
2022-08-12T00:47:25.183Z,48.12
2022-08-12T00:49:54.970Z,48.71
2022-08-12T00:52:22.898Z,48.39
2022-08-12T00:54:59.520Z,48.49
2022-08-12T00:57:31.860Z,49.55
2022-08-12T01:00:08.561Z,50.54
2022-08-12T01:02:40.564Z,50.84
2022-08-12T01:05:32.589Z,50.70
2022-08-12T01:08:18.469Z,52.07
2022-08-12T01:11:05.440Z,52.96
2022-08-12T01:13:34.517Z,51.89
2022-08-12T01:16:03.985Z,53.93
2022-08-12T01:18:39.511Z,54.16
2022-08-12T01:21:09.013Z,54.51
2022-08-12T01:24:31.452Z,54.39
2022-08-12T01:27:00.156Z,53.82
2022-08-12T01:29:32.832Z,53.63
2022-08-12T01:32:05.441Z,54.04
2022-08-12T01:34:37.546Z,54.03
2022-08-12T01:37:10.072Z,53.01
2022-08-12T01:40:33.931Z,52.11
2022-08-12T01:42:49.042Z,52.50
2022-08-12T01:45:17.752Z,52.54
2022-08-12T01:48:15.976Z,51.20
2022-08-12T01:51:00.238Z,50.08
2022-08-12T01:53:50.433Z,50.66
2022-08-12T01:56:22.054Z,50.54
2022-08-12T01:59:12.532Z,50.22
2022-08-12T02:01:41.438Z,48.97
2022-08-12T02:04:54.661Z,49.00
2022-08-12T02:07:56.799Z,50.27
2022-08-12T02:11:00.693Z,49.56
2022-08-12T02:13:55.376Z,50.12
2022-08-12T02:16:40.321Z,50.21
2022-08-12T02:19:22.456Z,51.70
2022-08-12T02:22:12.683Z,52.24
2022-08-12T02:24:42.390Z,52.58
2022-08-12T02:27:10.629Z,52.94
2022-08-12T02:29:39.653Z,52.64
2022-08-12T02:32:07.507Z,52.24
2022-08-12T02:34:35.250Z,52.44
2022-08-12T02:37:03.924Z,53.25
2022-08-12T02:39:34.054Z,53.78
2022-08-12T02:42:03.952Z,53.61
2022-08-12T02:44:37.601Z,55.52
2022-08-12T02:47:06.379Z,56.76
2022-08-12T02:49:39.924Z,58.00
2022-08-12T02:52:10.326Z,58.05
2022-08-12T02:54:38.713Z,61.08
2022-08-12T02:57:06.281Z,61.91
2022-08-12T02:59:35.681Z,61.14
2022-08-12T03:02:04.195Z,62.73
2022-08-12T03:04:46.440Z,61.75
2022-08-12T03:07:55.837Z,61.10
2022-08-12T03:10:34.699Z,61.15
2022-08-12T03:13:07.213Z,65.91
2022-08-12T03:15:35.762Z,67.87
2022-08-12T03:18:37.768Z,67.83
2022-08-12T03:21:04.662Z,69.14
2022-08-12T03:23:31.678Z,70.06
2022-08-12T03:26:03.195Z,68.46
2022-08-12T03:28:52.049Z,67.04
2022-08-12T03:31:25.901Z,67.82
2022-08-12T03:34:01.911Z,66.64
2022-08-12T03:36:35.729Z,65.23
2022-08-12T03:39:16.009Z,68.78
2022-08-12T03:42:07.642Z,69.58
2022-08-12T03:45:04.834Z,68.71
2022-08-12T03:47:53.804Z,69.07
2022-08-12T03:50:39.671Z,68.21
2022-08-12T03:53:27.079Z,68.37
2022-08-12T03:56:13.007Z,69.26
2022-08-12T03:59:00.397Z,68.77
2022-08-12T04:01:27.535Z,67.81
2022-08-12T04:03:55.039Z,68.49
2022-08-12T04:06:34.550Z,68.50
2022-08-12T04:09:05.300Z,68.86
2022-08-12T04:12:01.609Z,68.68
2022-08-12T04:14:28.438Z,72.89
2022-08-12T04:16:57.153Z,72.26
2022-08-12T04:19:26.310Z,72.45
2022-08-12T04:22:01.663Z,70.46
2022-08-12T04:24:35.501Z,71.70
2022-08-12T04:27:08.703Z,72.52
2022-08-12T04:30:21.112Z,70.43
2022-08-12T04:32:25.432Z,71.22
2022-08-12T04:34:52.930Z,71.41
2022-08-12T04:37:19.783Z,71.18
2022-08-12T04:39:46.811Z,70.97
2022-08-12T04:42:13.862Z,71.76
2022-08-12T04:44:42.236Z,72.20
2022-08-12T04:47:16.580Z,72.59
2022-08-12T04:49:45.909Z,70.33
2022-08-12T04:52:13.119Z,70.26
2022-08-12T04:54:39.989Z,70.38
2022-08-12T04:57:09.810Z,70.53
2022-08-12T04:59:46.882Z,69.85
2022-08-12T05:02:21.770Z,69.37
2022-08-12T05:04:55.747Z,69.71
2022-08-12T05:07:24.396Z,71.42
2022-08-12T05:10:00.161Z,71.82
2022-08-12T05:12:34.234Z,71.74
2022-08-12T05:15:01.080Z,71.10
2022-08-12T05:17:28.282Z,70.77
2022-08-12T05:19:57.227Z,70.95
2022-08-12T05:22:27.993Z,71.58
2022-08-12T05:24:55.075Z,71.66
2022-08-12T05:27:23.062Z,71.19
2022-08-12T05:30:07.678Z,71.36
2022-08-12T05:32:36.478Z,71.46
2022-08-12T05:35:06.593Z,71.09
2022-08-12T05:37:34.943Z,72.16
2022-08-12T05:40:08.296Z,73.21
2022-08-12T05:42:37.908Z,71.13
2022-08-12T05:45:05.986Z,71.25
2022-08-12T05:47:42.743Z,71.20
2022-08-12T05:50:19.807Z,71.64
2022-08-12T05:52:47.930Z,72.51
2022-08-12T05:55:14.974Z,76.62
2022-08-12T05:57:41.621Z,74.10
2022-08-12T06:00:08.764Z,74.15
2022-08-12T06:02:35.702Z,73.92
2022-08-12T06:05:02.744Z,73.30
2022-08-12T06:08:00.661Z,71.93
2022-08-12T06:10:17.706Z,71.56
2022-08-12T06:12:58.881Z,71.39
2022-08-12T06:15:25.588Z,71.60
2022-08-12T06:17:55.328Z,69.83
2022-08-12T06:20:29.080Z,68.25
2022-08-12T06:22:57.005Z,71.62
2022-08-12T06:25:29.271Z,70.37
2022-08-12T06:28:06.318Z,70.16
2022-08-12T06:30:38.549Z,69.87
2022-08-12T06:33:22.255Z,68.80
2022-08-12T06:35:51.882Z,68.48
2022-08-12T06:38:25.229Z,68.15
2022-08-12T06:41:16.427Z,67.04
2022-08-12T06:44:05.025Z,66.39
2022-08-12T06:46:31.137Z,64.97
2022-08-12T06:48:59.575Z,65.05
2022-08-12T06:51:31.172Z,64.77
2022-08-12T06:53:59.255Z,64.77
2022-08-12T06:56:45.972Z,63.58
2022-08-12T06:59:14.200Z,64.02
2022-08-12T07:01:40.881Z,63.22
2022-08-12T07:04:35.684Z,65.57
2022-08-12T07:07:02.917Z,67.46
2022-08-12T07:10:04.628Z,66.14
2022-08-12T07:12:19.997Z,65.86
2022-08-12T07:14:51.498Z,64.16
2022-08-12T07:17:18.723Z,63.62
2022-08-12T07:19:46.887Z,61.98
2022-08-12T07:22:16.203Z,62.53
2022-08-12T07:24:42.991Z,60.56
2022-08-12T07:27:10.128Z,60.17
2022-08-12T07:30:02.510Z,60.20
2022-08-12T07:32:24.700Z,60.04
2022-08-12T07:34:54.709Z,57.63
2022-08-12T07:37:21.497Z,57.38
2022-08-12T07:39:51.303Z,56.99
2022-08-12T07:42:27.952Z,55.53
2022-08-12T07:44:56.001Z,55.87
2022-08-12T07:47:23.320Z,59.59
2022-08-12T07:50:04.271Z,57.10
2022-08-12T07:52:34.143Z,57.81
2022-08-12T07:55:01.750Z,55.69
2022-08-12T07:57:28.447Z,55.69
2022-08-12T07:59:55.570Z,54.96
2022-08-12T08:02:27.064Z,54.16
2022-08-12T08:04:57.278Z,54.59
2022-08-12T08:07:30.635Z,55.05
2022-08-12T08:10:02.299Z,53.66
2022-08-12T08:12:49.142Z,54.15
2022-08-12T08:15:17.110Z,53.61
2022-08-12T08:18:03.269Z,52.77
2022-08-12T08:20:34.019Z,53.02
2022-08-12T08:23:08.128Z,52.57
2022-08-12T08:25:38.771Z,53.28
2022-08-12T08:28:17.253Z,52.67
2022-08-12T08:30:46.143Z,52.63
2022-08-12T08:34:04.732Z,51.90
2022-08-12T08:36:16.604Z,51.23
2022-08-12T08:38:58.432Z,52.32
2022-08-12T08:42:13.922Z,50.32
2022-08-12T08:44:39.564Z,50.19
2022-08-12T08:47:07.823Z,49.51
2022-08-12T08:49:37.376Z,48.14
2022-08-12T08:52:09.545Z,48.97
2022-08-12T08:54:37.848Z,48.56
2022-08-12T08:57:06.262Z,47.56
2022-08-12T08:59:32.928Z,48.68
2022-08-12T09:02:00.692Z,47.78
2022-08-12T09:05:13.858Z,44.84
2022-08-12T09:07:51.070Z,44.32
2022-08-12T09:10:15.457Z,43.42
2022-08-12T09:13:23.662Z,43.44
2022-08-12T09:18:43.597Z,42.74
2022-08-12T09:21:11.293Z,42.10
2022-08-12T09:23:59.488Z,41.07
2022-08-12T09:26:28.258Z,41.89
2022-08-12T09:28:57.133Z,42.13
2022-08-12T09:32:03.916Z,41.92
2022-08-12T09:34:25.702Z,40.88
2022-08-12T09:37:02.605Z,40.83
2022-08-12T09:40:05.625Z,40.38
2022-08-12T09:43:10.975Z,41.26
2022-08-12T09:46:06.466Z,41.74
2022-08-12T09:48:23.787Z,39.04
2022-08-12T09:50:55.187Z,39.49
2022-08-12T09:53:36.127Z,42.00
2022-08-12T09:57:03.182Z,40.74
2022-08-12T09:58:59.827Z,40.42
2022-08-12T10:01:35.626Z,40.81
2022-08-12T10:04:15.023Z,40.98
2022-08-12T10:06:55.268Z,43.23
2022-08-12T10:09:28.215Z,41.12
2022-08-12T10:12:31.129Z,41.83
2022-08-12T10:15:15.368Z,41.05
2022-08-12T10:18:07.022Z,40.51
2022-08-12T10:20:34.599Z,41.60
2022-08-12T10:23:01.920Z,40.83
2022-08-12T10:26:34.605Z,40.62
2022-08-12T10:29:02.357Z,41.02
2022-08-12T10:32:19.553Z,44.13
2022-08-12T10:34:26.369Z,42.73
2022-08-12T10:37:10.556Z,42.26
2022-08-12T10:40:07.098Z,42.90
2022-08-12T10:42:57.558Z,42.61
2022-08-12T10:45:27.419Z,42.80
2022-08-12T10:48:07.304Z,48.49
2022-08-12T10:51:02.126Z,51.21
2022-08-12T10:53:43.867Z,49.02
2022-08-12T10:56:17.228Z,47.15
2022-08-12T10:58:47.261Z,43.74
2022-08-12T11:01:25.775Z,45.70
2022-08-12T11:04:31.297Z,43.72
2022-08-12T11:07:10.201Z,42.58
2022-08-12T11:10:00.072Z,43.32
2022-08-12T11:12:56.543Z,42.85
2022-08-12T11:15:20.826Z,42.26
2022-08-12T11:17:53.851Z,42.30
2022-08-12T11:20:24.221Z,40.32
2022-08-12T11:23:03.788Z,40.48
2022-08-12T11:25:57.733Z,41.48
2022-08-12T11:28:33.940Z,40.16
2022-08-12T11:31:03.612Z,40.44
2022-08-12T11:34:05.527Z,40.99
2022-08-12T11:36:21.806Z,41.28
2022-08-12T11:38:50.360Z,41.21
2022-08-12T11:41:31.861Z,39.08
2022-08-12T11:44:35.463Z,40.47
2022-08-12T11:46:51.425Z,40.33
2022-08-12T11:49:26.821Z,40.41
2022-08-12T11:51:58.895Z,39.56
2022-08-12T11:54:25.581Z,40.94
2022-08-12T11:57:00.352Z,39.76
2022-08-12T12:02:20.149Z,41.67
2022-08-12T12:04:52.692Z,40.24
2022-08-12T12:07:33.662Z,42.75
2022-08-12T12:10:11.071Z,41.05
2022-08-12T12:12:38.128Z,41.71
2022-08-12T12:15:09.689Z,43.57
2022-08-12T12:17:38.461Z,42.36
2022-08-12T12:20:11.498Z,43.56
2022-08-12T12:22:41.472Z,44.48
2022-08-12T12:25:13.725Z,44.54
2022-08-12T12:28:04.696Z,42.14
2022-08-12T12:30:33.018Z,40.61
2022-08-12T12:33:01.082Z,43.24
2022-08-12T12:36:06.444Z,42.61
2022-08-12T12:38:15.993Z,42.24
2022-08-12T12:40:46.172Z,41.74
2022-08-12T12:43:29.019Z,44.11
2022-08-12T12:46:05.427Z,39.49
2022-08-12T12:48:32.073Z,39.53
2022-08-12T12:51:49.136Z,40.39
2022-08-12T12:54:06.145Z,39.39
2022-08-12T12:56:36.645Z,40.85
2022-08-12T12:59:06.922Z,39.07
2022-08-12T13:01:53.925Z,38.31
2022-08-12T13:04:20.697Z,39.97
2022-08-12T13:06:52.087Z,40.62
2022-08-12T13:09:19.441Z,39.30
2022-08-12T13:11:53.150Z,38.08
2022-08-12T13:14:28.141Z,38.38
2022-08-12T13:17:03.609Z,39.65
2022-08-12T13:19:38.958Z,38.77
2022-08-12T13:22:18.538Z,38.59
2022-08-12T13:24:46.434Z,37.43
2022-08-12T13:27:20.912Z,38.20
2022-08-12T13:29:48.944Z,37.91
2022-08-12T13:32:28.191Z,39.08
2022-08-12T13:35:04.305Z,39.25
2022-08-12T13:37:54.661Z,38.80
2022-08-12T13:40:25.689Z,38.93
2022-08-12T13:42:58.008Z,38.81
2022-08-12T13:45:30.893Z,37.90
2022-08-12T13:48:00.123Z,37.64
2022-08-12T13:50:36.252Z,37.11
2022-08-12T13:53:24.605Z,37.37
2022-08-12T13:55:59.446Z,38.26
2022-08-12T13:58:28.855Z,36.60
2022-08-12T14:00:58.258Z,37.05
2022-08-12T14:03:28.416Z,38.20
2022-08-12T14:06:15.633Z,38.29
2022-08-12T14:08:43.272Z,40.16
2022-08-12T14:11:12.311Z,41.84
2022-08-12T14:14:05.232Z,40.70
2022-08-12T14:16:37.586Z,41.42
2022-08-12T14:19:22.203Z,40.37
2022-08-12T14:21:59.544Z,40.51
2022-08-12T14:24:40.351Z,40.64
2022-08-12T14:27:10.424Z,39.14
2022-08-12T14:30:04.380Z,40.02
2022-08-12T14:32:34.846Z,39.78
2022-08-12T14:35:03.112Z,40.25
2022-08-12T14:37:56.509Z,40.91
2022-08-12T14:40:18.632Z,40.85
2022-08-12T14:42:54.718Z,42.32
2022-08-12T14:45:22.920Z,43.26
2022-08-12T14:47:53.655Z,42.37
2022-08-12T14:50:41.815Z,41.36
2022-08-12T14:54:55.944Z,41.05
2022-08-12T14:59:20.182Z,40.49
2022-08-12T15:01:49.745Z,40.00
2022-08-12T15:04:28.574Z,41.03
2022-08-12T15:06:56.170Z,41.30
2022-08-12T15:09:29.035Z,42.64
2022-08-12T15:12:03.254Z,41.49
2022-08-12T15:14:31.582Z,42.43
2022-08-12T15:17:00.692Z,40.88
2022-08-12T15:20:30.959Z,41.11
2022-08-12T15:22:38.599Z,40.36
2022-08-12T15:25:07.214Z,39.92
2022-08-12T15:28:04.109Z,39.68
2022-08-12T15:30:31.433Z,39.36
2022-08-12T15:32:59.009Z,39.50
2022-08-12T15:35:31.399Z,39.38
2022-08-12T15:38:19.755Z,40.23
2022-08-12T15:40:55.425Z,39.77
2022-08-12T15:43:35.447Z,38.97
2022-08-12T15:46:14.893Z,41.09
2022-08-12T15:48:46.700Z,38.23
2022-08-12T15:51:59.509Z,38.41
2022-08-12T15:54:33.522Z,39.17
2022-08-12T15:57:05.542Z,38.12
2022-08-12T16:00:00.231Z,38.25
2022-08-12T16:02:19.867Z,39.16
2022-08-12T16:04:50.512Z,38.50
2022-08-12T16:07:21.776Z,39.15
2022-08-12T16:10:08.478Z,38.86
2022-08-12T16:12:54.318Z,38.59
2022-08-12T16:15:26.436Z,39.63
2022-08-12T16:18:14.657Z,39.73
2022-08-12T16:20:46.484Z,40.17
2022-08-12T16:23:36.423Z,40.58
2022-08-12T16:26:14.683Z,40.72
2022-08-12T16:28:43.859Z,39.98
2022-08-12T16:31:14.499Z,39.63
2022-08-12T16:33:59.562Z,38.76
2022-08-12T16:36:28.975Z,39.52
2022-08-12T16:38:55.715Z,39.69
2022-08-12T16:41:23.308Z,40.77
2022-08-12T16:43:50.586Z,39.23
2022-08-12T16:46:32.607Z,39.54
2022-08-12T16:49:04.309Z,39.77
2022-08-12T16:51:40.313Z,39.41
2022-08-12T16:54:12.747Z,39.57
2022-08-12T16:56:50.893Z,39.25
2022-08-12T16:59:31.146Z,40.15
2022-08-12T17:02:30.058Z,39.37
2022-08-12T17:04:59.849Z,40.21
2022-08-12T17:07:36.587Z,40.13
2022-08-12T17:10:06.900Z,39.19
2022-08-12T17:12:33.703Z,39.52
2022-08-12T17:15:50.141Z,39.41
2022-08-12T17:18:15.254Z,40.00
2022-08-12T17:20:47.426Z,40.03
2022-08-12T17:23:16.569Z,39.69
2022-08-12T17:25:50.493Z,40.23
2022-08-12T17:28:18.218Z,40.20
2022-08-12T17:30:46.119Z,39.51
2022-08-12T17:33:25.238Z,39.54
2022-08-12T17:35:52.061Z,40.19
2022-08-12T17:38:21.099Z,39.78
2022-08-12T17:40:48.574Z,40.74
2022-08-12T17:43:57.833Z,39.78
2022-08-12T17:46:13.068Z,40.80
2022-08-12T17:48:55.444Z,41.39
2022-08-12T17:51:31.415Z,41.07
2022-08-12T17:54:10.493Z,40.81
2022-08-12T17:56:39.338Z,41.13
2022-08-12T17:59:12.163Z,41.49
2022-08-12T18:01:45.065Z,41.15
2022-08-12T18:04:22.633Z,41.26
2022-08-12T18:07:01.662Z,41.41
2022-08-12T18:09:32.192Z,41.25
2022-08-12T18:12:34.405Z,40.86
2022-08-12T18:15:08.943Z,40.83
2022-08-12T18:17:39.108Z,40.75
2022-08-12T18:20:15.498Z,40.41
2022-08-12T18:22:46.754Z,40.88
2022-08-12T18:26:14.728Z,40.77
2022-08-12T18:28:29.067Z,41.07
2022-08-12T18:31:03.071Z,40.96
2022-08-12T18:33:43.809Z,40.97
2022-08-12T18:36:13.414Z,40.56
2022-08-12T18:38:41.190Z,40.43
2022-08-12T18:41:33.627Z,41.33
2022-08-12T18:44:10.217Z,42.11
2022-08-12T18:46:55.721Z,42.53
2022-08-12T18:49:34.912Z,43.00
2022-08-12T18:52:05.799Z,44.01
2022-08-12T18:54:49.334Z,43.47
2022-08-12T18:58:06.919Z,43.68
2022-08-12T19:00:22.157Z,43.57
2022-08-12T19:02:53.454Z,43.71
2022-08-12T19:05:20.828Z,43.38
2022-08-12T19:08:01.800Z,43.21
2022-08-12T19:10:30.845Z,43.06
2022-08-12T19:13:23.359Z,43.08
2022-08-12T19:15:54.779Z,42.75
2022-08-12T19:18:30.199Z,42.88
2022-08-12T19:21:11.742Z,43.17
2022-08-12T19:23:39.326Z,42.93
2022-08-12T19:26:10.787Z,45.18
2022-08-12T19:28:40.141Z,46.04
2022-08-12T19:31:57.241Z,46.38
2022-08-12T19:38:02.535Z,45.02
2022-08-12T19:40:31.693Z,45.04
2022-08-12T19:43:02.363Z,45.55
2022-08-12T19:45:49.575Z,45.62
2022-08-12T19:48:19.154Z,44.79
2022-08-12T19:50:50.211Z,44.58
2022-08-12T19:53:20.508Z,44.23
2022-08-12T19:55:54.752Z,43.66
2022-08-12T19:58:23.192Z,43.28
2022-08-12T20:00:53.565Z,43.14
2022-08-12T20:03:38.006Z,43.01
2022-08-12T20:06:11.278Z,43.18
2022-08-12T20:08:48.924Z,43.98
2022-08-12T20:12:13.201Z,44.09
2022-08-12T20:14:09.099Z,44.26
2022-08-12T20:19:53.211Z,44.92
2022-08-12T20:22:29.896Z,46.29
2022-08-12T20:25:01.707Z,44.77
2022-08-12T20:28:03.076Z,44.73
2022-08-12T20:30:17.908Z,44.09
2022-08-12T20:32:55.857Z,43.44
2022-08-12T20:35:25.039Z,43.36
2022-08-12T20:38:26.836Z,43.17
2022-08-12T20:40:55.221Z,43.12
2022-08-12T20:43:24.178Z,43.98
2022-08-12T20:45:58.086Z,44.07
2022-08-12T20:48:29.597Z,44.81
2022-08-12T20:51:04.550Z,44.42
2022-08-12T20:53:58.074Z,46.90
2022-08-12T20:56:22.165Z,47.52
2022-08-12T20:59:00.048Z,47.30
2022-08-12T21:01:36.601Z,47.91
2022-08-12T21:04:33.806Z,46.97
2022-08-12T21:07:04.675Z,47.34
2022-08-12T21:09:45.540Z,46.68
2022-08-12T21:12:31.611Z,47.15
2022-08-12T21:15:24.336Z,47.18
2022-08-12T21:18:11.252Z,47.19
2022-08-12T21:20:53.168Z,47.97
2022-08-12T21:23:22.553Z,48.96
2022-08-12T21:25:51.297Z,49.36
2022-08-12T21:28:21.070Z,47.45
2022-08-12T21:31:10.836Z,48.03
2022-08-12T21:33:58.378Z,47.78
2022-08-12T21:36:34.545Z,47.94
2022-08-12T21:39:19.002Z,47.70
2022-08-12T21:41:51.264Z,48.05
2022-08-12T21:44:24.213Z,48.47
2022-08-12T21:47:20.404Z,47.22
2022-08-12T21:49:55.237Z,47.73
2022-08-12T21:52:28.311Z,47.16
2022-08-12T21:55:01.523Z,47.89
2022-08-12T21:57:30.422Z,48.67
2022-08-12T22:00:05.646Z,47.77
2022-08-12T22:03:02.030Z,47.08
2022-08-12T22:05:47.212Z,45.92
2022-08-12T22:08:17.094Z,46.15
2022-08-12T22:10:52.354Z,46.53
2022-08-12T22:14:04.142Z,46.55
2022-08-12T22:16:07.036Z,47.57
2022-08-12T22:18:33.772Z,46.07
2022-08-12T22:21:00.463Z,47.96
2022-08-12T22:23:51.179Z,47.58
2022-08-12T22:26:16.052Z,47.30
2022-08-12T22:29:14.598Z,46.66
2022-08-12T22:31:44.039Z,47.55
2022-08-12T22:34:18.056Z,47.61
2022-08-12T22:36:45.166Z,47.42
2022-08-12T22:39:15.837Z,47.29
2022-08-12T22:42:01.147Z,47.36
2022-08-12T22:44:52.758Z,47.55
2022-08-12T22:47:54.136Z,47.28
2022-08-12T22:50:27.114Z,48.09
2022-08-12T22:53:15.098Z,48.47
2022-08-12T22:56:00.672Z,47.76
2022-08-12T22:58:33.699Z,48.00
2022-08-12T23:01:02.400Z,48.03
2022-08-12T23:03:47.880Z,47.65
2022-08-12T23:06:19.418Z,48.09
2022-08-12T23:08:46.484Z,47.60
2022-08-12T23:11:16.072Z,47.55
2022-08-12T23:13:56.267Z,47.85
2022-08-12T23:16:31.202Z,47.41
2022-08-12T23:19:09.616Z,47.45
2022-08-12T23:22:03.183Z,47.29
2022-08-12T23:24:29.386Z,48.44
2022-08-12T23:27:15.089Z,48.69
2022-08-12T23:29:43.160Z,48.97
2022-08-12T23:32:13.477Z,49.43
2022-08-12T23:35:02.659Z,49.04
2022-08-12T23:37:47.814Z,48.42
2022-08-12T23:40:19.650Z,48.22
2022-08-12T23:42:48.177Z,48.07
2022-08-12T23:45:20.146Z,48.04
2022-08-12T23:48:00.226Z,48.40
2022-08-12T23:50:34.542Z,48.33
2022-08-12T23:53:05.329Z,48.82
2022-08-12T23:55:40.986Z,48.67
2022-08-12T23:58:18.156Z,48.72
